South Washington, Vermont
Current Conditions -  °F | °C
As of 2:51 PM on Friday 24 Oct 2014 (Local Time) from KMPV Reporting Station
Overcast Overcast  
Wind Chill:   Ceiling: 800
Heat Index:   Visibility: 10mi
Dew Point:   Wind: 6mph
Humidity: 92%   Direction: 330°NNW
Pressure: 29.81"   Gusts: NA
Location:  44.0671°N, 72.4216°W
Report Text: KMPV 241851Z AUTO 33005KT 10SM OVC008 06/04 A2981 RMK AO2 CIG 006V011 SLP103 T00560044 $
Loading
Personal Weather Stations






























Interactive Weather Map
Tropical Storm Tracking
New forecast layout! Learn more

10-Day Weather Forecast

Advertisements
Track Severe Weather on mobile